Time;durP1;ratioP1;P1;durP2;ratioP2;P2;SDS_P1;SDS_P2;PMS_P1;PMS_P2;Temp;Humidity;BMP_temperature;BMP_pressure;BME280_temperature;BME280_humidity;BME280_pressure;Samples;Min_cycle;Max_cycle;Signal;HPM_P1;HPM_P2
2023/12/20 00:00:08;;;;;;;4.22;2.33;;;5.40;99.90;;;;;;5019812;28;90244;-30
2023/12/20 00:02:34;;;;;;;3.35;1.67;;;5.50;99.90;;;;;;5019972;27;88209;-27
2023/12/20 00:05:00;;;;;;;8.38;2.58;;;5.50;99.90;;;;;;5019138;28;89960;-27
2023/12/20 00:07:26;;;;;;;8.88;2.20;;;5.50;99.90;;;;;;5019688;27;89886;-30
2023/12/20 00:09:51;;;;;;;6.90;2.22;;;5.50;99.90;;;;;;5019118;28;90232;-31
2023/12/20 00:12:17;;;;;;;2.85;2.20;;;5.50;99.90;;;;;;5019953;28;88208;-32
2023/12/20 00:14:42;;;;;;;5.45;1.92;;;5.50;99.90;;;;;;5019495;28;89353;-30
2023/12/20 00:17:08;;;;;;;7.03;2.20;;;5.50;99.90;;;;;;5019390;28;90010;-32
2023/12/20 00:19:33;;;;;;;5.32;2.08;;;5.50;99.90;;;;;;5020177;27;88899;-28
2023/12/20 00:21:59;;;;;;;4.90;1.83;;;5.50;99.90;;;;;;5018923;28;90023;-29
2023/12/20 00:24:25;;;;;;;8.85;2.90;;;5.50;99.90;;;;;;5019839;28;89549;-28
2023/12/20 00:26:51;;;;;;;1.70;1.40;;;5.50;99.90;;;;;;5019468;28;89071;-29
2023/12/20 00:29:16;;;;;;;4.78;2.55;;;5.50;99.90;;;;;;5019221;28;89693;-31
2023/12/20 00:31:42;;;;;;;6.07;2.22;;;5.50;99.90;;;;;;5019541;28;88802;-29
2023/12/20 00:34:07;;;;;;;2.25;1.85;;;5.50;99.90;;;;;;5018480;28;90376;-31
2023/12/20 00:36:33;;;;;;;5.30;2.95;;;5.50;99.90;;;;;;5019853;27;89788;-30
2023/12/20 00:38:58;;;;;;;3.08;1.88;;;5.40;99.90;;;;;;5018510;28;90039;-27
2023/12/20 00:41:24;;;;;;;5.45;1.88;;;5.50;99.90;;;;;;5018981;27;89193;-31
2023/12/20 00:43:50;;;;;;;3.35;1.67;;;5.40;99.90;;;;;;5018510;28;90554;-28
2023/12/20 00:46:15;;;;;;;2.65;1.35;;;5.50;99.90;;;;;;5018455;28;89574;-32
2023/12/20 00:48:42;;;;;;;7.13;2.85;;;5.40;99.90;;;;;;5018769;28;91729;-30
2023/12/20 00:51:08;;;;;;;3.83;1.92;;;5.40;99.90;;;;;;5018986;28;88522;-29
2023/12/20 00:53:33;;;;;;;3.15;1.38;;;5.40;99.90;;;;;;5019228;27;90152;-28
2023/12/20 00:55:59;;;;;;;9.82;3.78;;;5.40;99.90;;;;;;5018329;28;88053;-30
2023/12/20 00:58:25;;;;;;;3.50;1.20;;;5.40;99.90;;;;;;5018894;28;89737;-33
2023/12/20 01:00:51;;;;;;;5.78;1.70;;;5.40;99.90;;;;;;5019162;27;88029;-29
2023/12/20 01:03:16;;;;;;;2.92;1.83;;;5.40;99.90;;;;;;5018256;27;89983;-28
2023/12/20 01:05:42;;;;;;;6.30;2.20;;;5.40;99.90;;;;;;5019325;28;90300;-30
2023/12/20 01:08:07;;;;;;;10.23;3.35;;;5.40;99.90;;;;;;5017343;28;89620;-31
2023/12/20 01:10:33;;;;;;;4.70;2.28;;;5.40;99.90;;;;;;5019179;27;88785;-29
2023/12/20 01:12:59;;;;;;;7.50;2.38;;;5.40;99.90;;;;;;5012567;27;89807;-30
2023/12/20 01:15:24;;;;;;;6.47;2.08;;;5.40;99.90;;;;;;5018883;28;89762;-29
2023/12/20 01:17:50;;;;;;;11.45;1.80;;;5.40;99.90;;;;;;5018305;28;89136;-29
2023/12/20 01:20:15;;;;;;;11.40;2.13;;;5.50;99.90;;;;;;5018438;28;89446;-29
2023/12/20 01:22:42;;;;;;;2.88;1.60;;;5.40;99.90;;;;;;5018772;28;89926;-29
2023/12/20 01:25:08;;;;;;;12.77;3.28;;;5.40;99.90;;;;;;5018688;27;90154;-30
2023/12/20 01:27:34;;;;;;;6.72;2.30;;;5.40;99.90;;;;;;5018834;27;89713;-27
2023/12/20 01:29:59;;;;;;;7.40;2.88;;;5.50;99.90;;;;;;5018289;28;88766;-28
2023/12/20 01:32:25;;;;;;;7.43;2.67;;;5.50;99.90;;;;;;5018028;28;88819;-31
2023/12/20 01:34:50;;;;;;;10.00;3.90;;;5.50;99.90;;;;;;5018820;28;90751;-32
2023/12/20 01:37:16;;;;;;;9.57;2.97;;;5.50;99.90;;;;;;5017890;28;89420;-29
2023/12/20 01:39:41;;;;;;;5.13;2.10;;;5.50;99.90;;;;;;5019170;27;88925;-29
2023/12/20 01:42:07;;;;;;;11.07;4.13;;;5.50;99.90;;;;;;5017305;27;89018;-29
2023/12/20 01:44:33;;;;;;;3.83;2.13;;;5.50;99.90;;;;;;5018340;28;89582;-32
2023/12/20 01:46:59;;;;;;;6.28;3.72;;;5.50;99.90;;;;;;5017719;28;90644;-29
2023/12/20 01:49:25;;;;;;;7.88;3.30;;;5.50;99.90;;;;;;5018822;27;89438;-28
2023/12/20 01:51:51;;;;;;;5.60;2.10;;;5.50;99.90;;;;;;5019688;27;90239;-31
2023/12/20 01:54:17;;;;;;;14.20;2.95;;;5.40;99.90;;;;;;5021081;27;88330;-32
2023/12/20 01:56:43;;;;;;;8.93;2.38;;;5.40;99.90;;;;;;5021948;27;89616;-30
2023/12/20 01:59:09;;;;;;;5.05;2.45;;;5.40;99.90;;;;;;5022102;27;89300;-29
2023/12/20 02:01:35;;;;;;;7.57;4.38;;;5.50;99.90;;;;;;5021285;27;89905;-28
2023/12/20 02:04:02;;;;;;;14.45;3.63;;;5.50;99.90;;;;;;5021644;27;90495;-27
2023/12/20 02:06:33;;;;;;;12.02;3.13;;;5.50;99.90;;;;;;5021227;27;91092;-29
2023/12/20 02:08:59;;;;;;;6.45;2.08;;;5.60;99.90;;;;;;5021796;27;89665;-28
2023/12/20 02:11:26;;;;;;;10.55;2.60;;;5.60;99.90;;;;;;5021169;27;90024;-31
2023/12/20 02:13:51;;;;;;;10.93;3.55;;;5.60;99.90;;;;;;5021835;27;89260;-29
2023/12/20 02:16:17;;;;;;;8.85;2.85;;;5.60;99.90;;;;;;5021418;27;89252;-29
2023/12/20 02:18:46;;;;;;;11.55;4.13;;;5.60;99.90;;;;;;5021237;28;89861;-27
2023/12/20 02:21:12;;;;;;;12.43;3.70;;;5.60;99.90;;;;;;5019710;27;91368;-29
2023/12/20 02:23:38;;;;;;;12.80;4.55;;;5.60;99.90;;;;;;5021499;28;90544;-28
2023/12/20 02:26:06;;;;;;;6.32;2.75;;;5.60;99.90;;;;;;5020679;28;90726;-31
2023/12/20 02:28:32;;;;;;;10.55;2.17;;;5.60;99.90;;;;;;5021068;27;88751;-32
2023/12/20 02:30:57;;;;;;;7.85;3.08;;;5.60;99.90;;;;;;5021196;27;91105;-31
2023/12/20 02:33:23;;;;;;;13.95;3.08;;;5.60;99.90;;;;;;5020724;28;89968;-29
2023/12/20 02:35:48;;;;;;;9.85;4.22;;;5.60;99.90;;;;;;5021727;27;89576;-27
2023/12/20 02:38:14;;;;;;;5.60;1.95;;;5.60;99.90;;;;;;5021627;28;90318;-31
2023/12/20 02:40:39;;;;;;;11.15;2.90;;;5.70;99.90;;;;;;5020240;28;90014;-31
2023/12/20 02:43:05;;;;;;;2.88;2.65;;;5.70;99.90;;;;;;5021192;28;89707;-29
2023/12/20 02:45:31;;;;;;;4.35;2.75;;;5.70;99.90;;;;;;5020177;27;89314;-27
2023/12/20 02:47:57;;;;;;;12.60;3.80;;;5.70;99.90;;;;;;5020757;28;89057;-31
2023/12/20 02:50:22;;;;;;;6.72;2.47;;;5.70;99.90;;;;;;5021098;28;90391;-28
2023/12/20 02:52:48;;;;;;;10.02;3.83;;;5.70;99.90;;;;;;5021145;28;89317;-33
2023/12/20 02:55:13;;;;;;;6.55;3.25;;;5.70;99.90;;;;;;5019875;28;89376;-31
2023/12/20 02:57:41;;;;;;;12.73;3.70;;;5.70;99.90;;;;;;5020939;28;89524;-31
2023/12/20 03:00:09;;;;;;;3.97;2.43;;;5.80;99.90;;;;;;5020488;27;90060;-28
2023/12/20 03:02:34;;;;;;;7.53;2.10;;;5.70;99.90;;;;;;5019397;28;89670;-28
2023/12/20 03:05:00;;;;;;;4.80;3.17;;;5.70;99.90;;;;;;5019298;27;89404;-31
2023/12/20 03:07:26;;;;;;;15.73;4.90;;;5.70;99.90;;;;;;5021748;27;89420;-30
2023/12/20 03:09:51;;;;;;;5.05;2.67;;;5.80;99.90;;;;;;5020244;28;90307;-31
2023/12/20 03:12:17;;;;;;;15.80;3.53;;;5.80;99.90;;;;;;5014644;28;91079;-29
2023/12/20 03:14:44;;;;;;;8.77;3.08;;;5.80;99.90;;;;;;5020722;28;90294;-28
2023/12/20 03:17:09;;;;;;;15.60;3.40;;;5.80;99.90;;;;;;5020843;27;89003;-29
2023/12/20 03:19:35;;;;;;;7.63;4.32;;;5.80;99.90;;;;;;5020542;27;89943;-29
2023/12/20 03:22:01;;;;;;;10.43;3.85;;;5.80;99.90;;;;;;5020356;28;91024;-29
2023/12/20 03:24:27;;;;;;;11.45;3.42;;;5.80;99.90;;;;;;5020348;28;89435;-30
2023/12/20 03:26:52;;;;;;;10.00;2.47;;;5.80;99.90;;;;;;5020448;27;87688;-29
2023/12/20 03:29:18;;;;;;;10.25;3.05;;;5.80;99.90;;;;;;5018652;28;90379;-28
2023/12/20 03:31:43;;;;;;;15.13;5.40;;;5.80;99.90;;;;;;5020316;27;89611;-30
2023/12/20 03:34:09;;;;;;;4.32;3.80;;;5.80;99.90;;;;;;5019210;27;89291;-29
2023/12/20 03:36:35;;;;;;;9.05;3.35;;;5.80;99.90;;;;;;5020430;27;88088;-29
2023/12/20 03:39:00;;;;;;;3.47;2.00;;;5.80;99.90;;;;;;5019161;28;90535;-29
2023/12/20 03:41:26;;;;;;;13.73;2.25;;;5.80;99.90;;;;;;5020571;28;89431;-30
2023/12/20 03:43:51;;;;;;;16.65;4.55;;;5.80;99.90;;;;;;5019996;28;90871;-29
2023/12/20 03:46:17;;;;;;;7.75;3.25;;;5.80;99.90;;;;;;5019616;27;89176;-28
2023/12/20 03:48:42;;;;;;;7.70;3.75;;;5.80;99.90;;;;;;5020100;27;88969;-31
2023/12/20 03:51:08;;;;;;;6.80;2.60;;;5.80;99.90;;;;;;5019134;28;90127;-31
2023/12/20 03:53:33;;;;;;;8.85;2.92;;;5.80;99.90;;;;;;5020460;27;89670;-30
2023/12/20 03:55:59;;;;;;;11.60;4.55;;;5.80;99.90;;;;;;5019953;27;89001;-30
2023/12/20 03:58:25;;;;;;;14.15;4.65;;;5.90;99.90;;;;;;5019649;28;89934;-29
2023/12/20 04:00:50;;;;;;;6.70;3.35;;;5.90;99.90;;;;;;5019430;28;90415;-28
2023/12/20 04:03:16;;;;;;;6.93;3.00;;;5.90;99.90;;;;;;5018931;28;89976;-31
2023/12/20 04:05:41;;;;;;;17.05;5.45;;;5.90;99.90;;;;;;5020702;27;89402;-29
2023/12/20 04:08:08;;;;;;;26.85;5.40;;;5.90;99.90;;;;;;5018796;27;90050;-30
2023/12/20 04:10:33;;;;;;;9.90;3.55;;;6.00;99.90;;;;;;5019113;27;89055;-29
2023/12/20 04:12:59;;;;;;;13.68;6.07;;;6.00;99.90;;;;;;5019392;28;89473;-30
2023/12/20 04:15:25;;;;;;;17.90;5.15;;;6.00;99.90;;;;;;5019115;27;88892;-29
2023/12/20 04:17:50;;;;;;;19.23;4.15;;;6.00;99.90;;;;;;5020287;28;89735;-28
2023/12/20 04:20:16;;;;;;;9.45;3.50;;;6.00;99.90;;;;;;5018655;27;89582;-32
2023/12/20 04:22:42;;;;;;;22.23;4.63;;;6.00;99.90;;;;;;5014410;28;89734;-29
2023/12/20 04:25:08;;;;;;;12.65;4.53;;;6.00;99.90;;;;;;5018636;27;89682;-30
2023/12/20 04:27:34;;;;;;;8.55;3.50;;;6.00;99.90;;;;;;5019081;28;90247;-28
2023/12/20 04:29:59;;;;;;;11.38;3.88;;;6.00;99.90;;;;;;5019292;27;89762;-28
2023/12/20 04:32:25;;;;;;;21.52;4.93;;;6.00;99.90;;;;;;5018560;28;89097;-29
2023/12/20 04:34:50;;;;;;;23.25;6.13;;;6.00;99.90;;;;;;5020218;28;89667;-30
2023/12/20 04:37:16;;;;;;;15.50;4.85;;;6.00;99.90;;;;;;5017977;27;90375;-31
2023/12/20 04:39:42;;;;;;;23.08;5.32;;;5.90;99.90;;;;;;5019247;28;89804;-28
2023/12/20 04:42:08;;;;;;;8.13;3.88;;;6.00;99.90;;;;;;5018860;27;88848;-31
2023/12/20 04:44:34;;;;;;;10.55;4.82;;;6.00;99.90;;;;;;5018781;27;88281;-31
2023/12/20 04:47:00;;;;;;;20.13;3.65;;;6.00;99.90;;;;;;5018545;27;89790;-28
2023/12/20 04:49:25;;;;;;;13.75;4.68;;;6.00;99.90;;;;;;5018359;27;90206;-30
2023/12/20 04:51:51;;;;;;;5.50;2.65;;;6.00;99.90;;;;;;5019392;27;91162;-28
2023/12/20 04:54:16;;;;;;;12.82;5.03;;;6.00;99.90;;;;;;5019096;27;88997;-31
2023/12/20 04:56:42;;;;;;;4.65;3.25;;;6.10;99.90;;;;;;5019148;27;90200;-30
2023/12/20 04:59:08;;;;;;;13.80;6.43;;;6.10;99.90;;;;;;5019347;27;91804;-30
2023/12/20 05:01:33;;;;;;;16.67;6.05;;;6.10;99.90;;;;;;5018595;28;89535;-29
2023/12/20 05:03:59;;;;;;;14.95;4.68;;;6.10;99.90;;;;;;5019043;27;88508;-31
2023/12/20 05:06:24;;;;;;;12.20;4.57;;;6.10;99.90;;;;;;5018588;28;90293;-30
2023/12/20 05:08:50;;;;;;;11.38;6.03;;;6.10;99.90;;;;;;5018640;28;90178;-28
2023/12/20 05:11:16;;;;;;;12.00;6.35;;;6.20;99.90;;;;;;5014689;28;90078;-29
2023/12/20 05:13:42;;;;;;;13.45;3.92;;;6.20;99.90;;;;;;5008183;27;90161;-30
2023/12/20 05:16:08;;;;;;;15.18;4.60;;;6.10;99.90;;;;;;5019121;28;88660;-27
2023/12/20 05:18:34;;;;;;;9.55;3.78;;;6.20;99.90;;;;;;5018959;27;89725;-28
2023/12/20 05:21:00;;;;;;;15.02;5.88;;;6.20;99.90;;;;;;5017180;28;89220;-31
2023/12/20 05:23:26;;;;;;;13.57;3.88;;;6.20;99.90;;;;;;5019189;27;89510;-30
2023/12/20 05:25:51;;;;;;;16.90;4.88;;;6.20;99.90;;;;;;5018224;27;90044;-31
2023/12/20 05:28:17;;;;;;;22.40;5.40;;;6.30;99.90;;;;;;5021657;28;90827;-27
2023/12/20 05:30:43;;;;;;;16.67;5.60;;;6.30;99.90;;;;;;5021718;27;89874;-30
2023/12/20 05:33:09;;;;;;;9.07;2.95;;;6.30;99.90;;;;;;5022376;27;89136;-30
2023/12/20 05:35:35;;;;;;;13.77;3.67;;;6.30;99.90;;;;;;5015405;28;90962;-29
2023/12/20 05:38:00;;;;;;;7.70;4.55;;;6.30;99.90;;;;;;5020913;28;90574;-29
2023/12/20 05:40:26;;;;;;;15.70;4.82;;;6.40;99.90;;;;;;5021797;28;91053;-28
2023/12/20 05:42:51;;;;;;;17.42;3.20;;;6.40;99.90;;;;;;5022165;27;88436;-29
2023/12/20 05:45:17;;;;;;;15.32;4.05;;;6.40;99.90;;;;;;5021667;28;90345;-29
2023/12/20 05:47:43;;;;;;;20.08;5.20;;;6.40;99.90;;;;;;5021823;28;88632;-28
2023/12/20 05:50:09;;;;;;;14.02;6.30;;;6.50;99.90;;;;;;5020735;28;90359;-30
2023/12/20 05:52:34;;;;;;;12.88;3.90;;;6.50;99.90;;;;;;5022647;27;89193;-31
2023/12/20 05:55:01;;;;;;;6.78;4.15;;;6.50;99.90;;;;;;5021746;28;90349;-32
2023/12/20 05:57:27;;;;;;;11.35;4.35;;;6.50;99.90;;;;;;5022081;27;89603;-29
2023/12/20 05:59:52;;;;;;;15.80;5.15;;;6.50;99.90;;;;;;5021283;28;89830;-28
2023/12/20 06:02:18;;;;;;;18.20;5.10;;;6.60;99.90;;;;;;5022138;28;91948;-32
2023/12/20 06:04:44;;;;;;;14.38;6.30;;;6.60;99.90;;;;;;5019513;28;89730;-29
2023/12/20 06:07:12;;;;;;;14.80;5.05;;;6.60;99.90;;;;;;5019854;28;88501;-30
2023/12/20 06:09:38;;;;;;;8.98;4.43;;;6.60;99.90;;;;;;5021003;27;89908;-29
2023/12/20 06:12:03;;;;;;;8.63;2.88;;;6.60;99.90;;;;;;5021192;28;89004;-29
2023/12/20 06:14:30;;;;;;;17.05;6.13;;;6.60;99.90;;;;;;5020069;27;89513;-29
2023/12/20 06:16:56;;;;;;;26.48;5.20;;;6.60;99.90;;;;;;5021774;27;90087;-30
2023/12/20 06:19:22;;;;;;;12.85;4.32;;;6.70;99.90;;;;;;5021467;27;89852;-29
2023/12/20 06:21:47;;;;;;;8.52;4.28;;;6.70;99.90;;;;;;5021070;28;89113;-29
2023/12/20 06:24:13;;;;;;;15.00;4.95;;;6.70;99.90;;;;;;5020697;27;89893;-29
2023/12/20 06:26:39;;;;;;;19.35;5.18;;;6.70;99.90;;;;;;5020157;27;89712;-29
2023/12/20 06:29:04;;;;;;;12.77;5.57;;;6.70;99.90;;;;;;5019483;28;89446;-28
2023/12/20 06:31:32;;;;;;;19.13;5.03;;;6.70;99.90;;;;;;5021582;28;88500;-29
2023/12/20 06:33:59;;;;;;;12.10;5.63;;;6.70;99.90;;;;;;5020038;28;90457;-30
2023/12/20 06:36:25;;;;;;;13.73;4.40;;;6.70;99.90;;;;;;5021269;28;89628;-28
2023/12/20 06:38:51;;;;;;;21.80;4.75;;;6.80;99.90;;;;;;5019608;27;89317;-28
2023/12/20 06:41:17;;;;;;;10.63;3.67;;;6.80;99.90;;;;;;5020964;27;89769;-31
2023/12/20 06:43:43;;;;;;;12.68;4.22;;;6.80;99.90;;;;;;5021793;27;89322;-29
2023/12/20 06:46:08;;;;;;;10.45;4.25;;;6.80;99.90;;;;;;5020167;27;90031;-29
2023/12/20 06:48:35;;;;;;;11.38;5.40;;;6.80;99.90;;;;;;5020914;28;89929;-30
2023/12/20 06:51:04;;;;;;;12.18;3.70;;;6.80;99.90;;;;;;5020245;27;89790;-27
2023/12/20 06:53:30;;;;;;;11.50;4.93;;;6.80;99.90;;;;;;5020780;27;90902;-30
2023/12/20 06:55:58;;;;;;;14.23;4.60;;;6.80;99.90;;;;;;5017488;27;89500;-29
2023/12/20 06:58:24;;;;;;;5.53;3.15;;;6.80;99.90;;;;;;5013297;27;90009;-32
2023/12/20 07:00:50;;;;;;;8.25;3.67;;;6.80;99.90;;;;;;5021163;28;89409;-31
2023/12/20 07:03:16;;;;;;;27.05;5.40;;;6.80;99.90;;;;;;5019584;27;90449;-29
2023/12/20 07:05:42;;;;;;;7.97;4.40;;;6.80;99.90;;;;;;5021089;28;89650;-28
2023/12/20 07:08:08;;;;;;;13.43;4.30;;;6.90;99.90;;;;;;5015100;28;89847;-28
2023/12/20 07:10:33;;;;;;;17.55;4.50;;;6.90;99.90;;;;;;5021160;28;87630;-33
2023/12/20 07:12:59;;;;;;;10.57;5.80;;;6.90;99.90;;;;;;5020584;27;89522;-29
2023/12/20 07:15:25;;;;;;;6.72;3.63;;;6.90;99.90;;;;;;5019540;28;90174;-32
2023/12/20 07:17:50;;;;;;;11.40;5.05;;;6.90;99.90;;;;;;5020074;27;90340;-29
2023/12/20 07:20:16;;;;;;;7.28;4.47;;;6.90;99.90;;;;;;5020901;28;89950;-29
2023/12/20 07:22:42;;;;;;;14.13;4.55;;;6.90;99.90;;;;;;5020178;28;90163;-31
2023/12/20 07:25:07;;;;;;;5.00;2.60;;;6.90;99.90;;;;;;5019574;28;90099;-30
2023/12/20 07:27:33;;;;;;;18.67;5.13;;;6.90;99.90;;;;;;5020446;27;90414;-29
2023/12/20 07:29:59;;;;;;;15.65;5.03;;;6.90;99.90;;;;;;5019922;27;89588;-30
2023/12/20 07:32:24;;;;;;;14.82;5.25;;;6.90;99.90;;;;;;5019789;27;90471;-30
2023/12/20 07:34:50;;;;;;;12.82;5.05;;;6.90;99.90;;;;;;5019390;28;89743;-32
2023/12/20 07:37:16;;;;;;;8.82;3.45;;;7.00;99.90;;;;;;5019944;28;89100;-31
2023/12/20 07:39:42;;;;;;;10.57;5.50;;;7.00;99.90;;;;;;5053900;22;89498;-30
2023/12/20 07:42:08;;;;;;;7.07;4.65;;;7.00;99.90;;;;;;5018578;27;89118;-30
2023/12/20 07:44:35;;;;;;;16.38;3.83;;;7.00;99.90;;;;;;5019708;27;88710;-29
2023/12/20 07:47:01;;;;;;;6.03;3.85;;;6.90;99.90;;;;;;5019775;27;89532;-29
2023/12/20 07:49:27;;;;;;;21.00;5.28;;;7.00;99.90;;;;;;5020515;27;90184;-28
2023/12/20 07:51:52;;;;;;;13.63;5.50;;;7.00;99.90;;;;;;5019654;28;90137;-31
2023/12/20 07:54:18;;;;;;;10.00;4.13;;;7.00;99.90;;;;;;5020377;27;90305;-29
2023/12/20 07:56:46;;;;;;;15.82;5.47;;;7.00;99.90;;;;;;5019888;27;87674;-29
2023/12/20 07:59:12;;;;;;;12.00;5.05;;;7.00;99.90;;;;;;5019957;27;90380;-32
2023/12/20 08:01:38;;;;;;;32.05;6.15;;;7.00;99.90;;;;;;5020275;27;88775;-29
2023/12/20 08:04:03;;;;;;;13.00;4.85;;;7.00;99.90;;;;;;5018885;28;90545;-30
2023/12/20 08:06:29;;;;;;;20.17;7.63;;;7.10;99.90;;;;;;5019699;28;91387;-29
2023/12/20 08:08:54;;;;;;;10.70;3.95;;;7.00;99.90;;;;;;5019780;28;89298;-29
2023/12/20 08:11:20;;;;;;;9.18;4.60;;;7.00;99.90;;;;;;5019794;28;90349;-31
2023/12/20 08:13:46;;;;;;;11.77;4.70;;;7.00;99.90;;;;;;5014240;27;89784;-30
2023/12/20 08:16:13;;;;;;;12.70;5.45;;;7.10;99.90;;;;;;5018104;28;89755;-31
2023/12/20 08:18:39;;;;;;;12.27;3.65;;;7.00;99.90;;;;;;5018385;27;89051;-32
2023/12/20 08:21:07;;;;;;;13.05;5.32;;;7.10;99.90;;;;;;5017833;28;91774;-30
2023/12/20 08:23:33;;;;;;;23.58;6.28;;;7.10;99.90;;;;;;5008596;28;89335;-31
2023/12/20 08:25:58;;;;;;;9.23;4.40;;;7.10;99.90;;;;;;5018856;27;89669;-30
2023/12/20 08:28:24;;;;;;;13.98;5.43;;;7.10;99.90;;;;;;5019315;28;88880;-31
2023/12/20 08:30:53;;;;;;;11.80;4.60;;;7.20;99.90;;;;;;5018950;28;90269;-29
2023/12/20 08:33:19;;;;;;;21.17;5.95;;;7.20;99.90;;;;;;5018967;27;89664;-33
2023/12/20 08:35:44;;;;;;;19.90;4.15;;;7.20;99.90;;;;;;5019276;27;89885;-32
2023/12/20 08:38:10;;;;;;;15.80;4.70;;;7.20;99.90;;;;;;5019282;27;88960;-31
2023/12/20 08:40:35;;;;;;;14.15;3.22;;;7.30;99.90;;;;;;5018515;28;90387;-29
2023/12/20 08:43:01;;;;;;;12.80;3.85;;;7.30;99.90;;;;;;5016798;28;89694;-27
2023/12/20 08:45:27;;;;;;;11.77;4.50;;;7.30;99.90;;;;;;5019316;28;90089;-32
2023/12/20 08:47:52;;;;;;;8.73;4.35;;;7.40;99.90;;;;;;5019186;27;87898;-32
2023/12/20 08:50:18;;;;;;;13.60;4.43;;;7.40;99.90;;;;;;5019294;28;90224;-32
2023/12/20 08:52:43;;;;;;;11.30;5.60;;;7.40;99.90;;;;;;5018490;27;90368;-29
2023/12/20 08:55:12;;;;;;;17.50;5.38;;;7.40;99.90;;;;;;5018324;27;90747;-29
2023/12/20 08:57:38;;;;;;;12.40;6.20;;;7.40;99.90;;;;;;5019592;28;89921;-29
2023/12/20 09:00:06;;;;;;;10.15;5.32;;;7.50;99.90;;;;;;5018792;27;89687;-29
2023/12/20 09:02:33;;;;;;;;;;;7.50;99.90;;;;;;5019233;27;89113;-29
2023/12/20 09:04:59;;;;;;;13.57;4.10;;;7.60;99.90;;;;;;5020163;27;89567;-31
2023/12/20 09:07:26;;;;;;;9.57;3.60;;;7.60;99.90;;;;;;5019586;28;88909;-31
2023/12/20 09:09:52;;;;;;;17.95;5.85;;;7.60;99.90;;;;;;5018290;27;89711;-28
2023/12/20 09:12:19;;;;;;;9.60;4.07;;;7.70;99.90;;;;;;5019005;27;90268;-31
2023/12/20 09:14:45;;;;;;;10.10;3.97;;;7.70;99.90;;;;;;5018599;27;90251;-31
2023/12/20 09:17:12;;;;;;;10.63;4.10;;;7.70;99.90;;;;;;5018675;27;89011;-30
2023/12/20 09:19:38;;;;;;;11.00;5.00;;;7.70;99.90;;;;;;5018062;28;90336;-27
2023/12/20 09:22:04;;;;;;;11.90;5.18;;;7.70;99.90;;;;;;5018191;27;89533;-30
2023/12/20 09:24:30;;;;;;;13.20;5.07;;;7.70;99.90;;;;;;5018173;28;89742;-31
2023/12/20 09:26:56;;;;;;;17.20;4.32;;;7.70;99.90;;;;;;5019012;27;88635;-29
2023/12/20 09:29:22;;;;;;;8.93;4.70;;;7.70;99.90;;;;;;5018302;27;90186;-28
2023/12/20 09:31:48;;;;;;;13.65;3.53;;;7.70;99.90;;;;;;5018389;28;88933;-29
2023/12/20 09:34:15;;;;;;;12.77;4.13;;;7.70;99.90;;;;;;5018339;27;90239;-30
2023/12/20 09:36:46;;;;;;;11.97;5.53;;;7.80;99.90;;;;;;5018743;27;88901;-29
2023/12/20 09:39:19;;;;;;;7.65;4.00;;;7.80;99.90;;;;;;5017578;28;89867;-29
2023/12/20 09:41:46;;;;;;;9.13;3.08;;;7.90;99.90;;;;;;5017677;27;90466;-30
2023/12/20 09:44:17;;;;;;;16.25;6.47;;;7.90;99.90;;;;;;5017896;27;90634;-28
2023/12/20 09:46:45;;;;;;;13.25;5.53;;;8.10;99.90;;;;;;5018520;27;89594;-28
2023/12/20 09:49:12;;;;;;;14.17;4.10;;;8.20;99.90;;;;;;5016589;28;90122;-28
2023/12/20 09:51:39;;;;;;;10.32;4.43;;;8.30;99.90;;;;;;5018020;27;89459;-29
2023/12/20 09:54:05;;;;;;;5.03;2.85;;;8.30;99.90;;;;;;5017486;28;90398;-29
2023/12/20 09:56:31;;;;;;;6.20;2.63;;;8.40;99.90;;;;;;5018318;27;89599;-31
2023/12/20 09:58:56;;;;;;;2.20;1.77;;;8.20;99.90;;;;;;5016351;28;89262;-30
2023/12/20 10:01:23;;;;;;;1.50;1.33;;;7.80;99.90;;;;;;5017877;28;89766;-30
2023/12/20 10:03:51;;;;;;;4.18;1.20;;;7.30;99.90;;;;;;5018271;28;89792;-29
2023/12/20 10:06:16;;;;;;;1.47;1.27;;;7.10;99.90;;;;;;5017766;27;90178;-32
2023/12/20 10:08:42;;;;;;;1.50;1.00;;;7.00;99.90;;;;;;5018155;28;90370;-32
2023/12/20 10:11:08;;;;;;;4.93;1.33;;;6.90;99.90;;;;;;5017686;28;88063;-28
2023/12/20 10:13:34;;;;;;;7.47;1.75;;;6.70;99.90;;;;;;5019868;27;89730;-29
2023/12/20 10:16:00;;;;;;;1.85;0.80;;;6.60;99.90;;;;;;5021580;27;89831;-30
2023/12/20 10:18:28;;;;;;;2.42;1.10;;;6.60;99.90;;;;;;5008918;28;89676;-29
2023/12/20 10:20:54;;;;;;;1.85;1.17;;;6.50;99.90;;;;;;5020077;28;90362;-30
2023/12/20 10:23:20;;;;;;;2.17;1.73;;;6.50;99.90;;;;;;5021810;28;90048;-29
2023/12/20 10:25:56;;;;;;;3.67;1.13;;;6.40;99.90;;;;;;5021622;27;89086;-29
2023/12/20 10:28:25;;;;;;;1.75;0.85;;;6.50;99.90;;;;;;5021250;27;89774;-27
2023/12/20 10:30:50;;;;;;;7.90;2.28;;;6.40;99.90;;;;;;5019775;27;90677;-30
2023/12/20 10:33:32;;;;;;;2.75;2.55;;;6.40;99.90;;;;;;5021328;28;90478;-31
2023/12/20 10:35:57;;;;;;;2.30;1.45;;;6.50;99.90;;;;;;5021088;27;89132;-32
2023/12/20 10:38:23;;;;;;;8.02;2.10;;;6.40;99.90;;;;;;5021921;28;90194;-31
2023/12/20 10:40:53;;;;;;;2.60;1.50;;;6.40;99.90;;;;;;5020075;27;89009;-31
2023/12/20 10:43:19;;;;;;;2.50;1.15;;;6.40;99.90;;;;;;5021187;27;89630;-30
2023/12/20 10:45:45;;;;;;;1.80;1.52;;;6.40;99.90;;;;;;5021587;27;90398;-28
2023/12/20 10:48:14;;;;;;;5.53;1.48;;;6.40;99.90;;;;;;5020556;28;89995;-29
2023/12/20 10:50:40;;;;;;;;;;;6.30;99.90;;;;;;5021388;27;90142;-31
2023/12/20 10:53:07;;;;;;;3.20;1.02;;;6.30;99.90;;;;;;5022636;28;89390;-29
2023/12/20 10:55:33;;;;;;;3.15;2.03;;;6.30;99.90;;;;;;5020924;27;88525;-29
2023/12/20 10:58:07;;;;;;;2.17;1.98;;;6.30;99.90;;;;;;5020675;27;90540;-28
2023/12/20 11:00:35;;;;;;;11.45;2.58;;;6.40;99.90;;;;;;5021099;27;90085;-31
2023/12/20 11:03:04;;;;;;;;;;;6.40;99.90;;;;;;5021856;27;90358;-28
2023/12/20 11:05:36;;;;;;;4.93;1.85;;;6.30;99.90;;;;;;5022298;27;87702;-30
2023/12/20 11:08:15;;;;;;;5.63;1.75;;;6.30;99.90;;;;;;5021013;28;89904;-29
2023/12/20 11:10:59;;;;;;;5.38;1.58;;;6.30;99.90;;;;;;5021091;28;89767;-30
2023/12/20 11:13:37;;;;;;;4.30;1.63;;;6.40;99.90;;;;;;5020476;27;90108;-29
2023/12/20 11:16:04;;;;;;;1.77;0.90;;;6.40;99.90;;;;;;5020931;27;89860;-29
2023/12/20 11:18:30;;;;;;;7.35;3.35;;;6.40;99.90;;;;;;5021093;27;91174;-31
2023/12/20 11:21:06;;;;;;;2.72;1.38;;;6.40;99.90;;;;;;5019326;28;92462;-30
2023/12/20 11:23:35;;;;;;;5.50;1.65;;;6.40;99.90;;;;;;5020137;27;90930;-27
2023/12/20 11:26:02;;;;;;;6.32;2.10;;;6.40;99.90;;;;;;5019314;27;88133;-28
2023/12/20 11:28:29;;;;;;;3.53;1.20;;;6.50;99.90;;;;;;5020637;27;89785;-31
2023/12/20 11:30:59;;;;;;;4.05;1.70;;;6.50;99.90;;;;;;5018935;28;90409;-27
2023/12/20 11:33:48;;;;;;;3.10;1.83;;;6.50;99.90;;;;;;5020300;28;88922;-28
2023/12/20 11:36:18;;;;;;;9.15;1.73;;;6.50;99.90;;;;;;5020315;27;89043;-28
2023/12/20 11:38:57;;;;;;;3.90;1.52;;;6.60;99.90;;;;;;5020405;27;90291;-31
2023/12/20 11:41:27;;;;;;;4.88;2.53;;;6.60;99.90;;;;;;5020535;27;88836;-31
2023/12/20 11:43:56;;;;;;;2.55;1.75;;;6.60;99.90;;;;;;5020066;28;89281;-28
2023/12/20 11:46:22;;;;;;;6.22;2.05;;;6.70;99.90;;;;;;5020725;27;88024;-30
2023/12/20 11:48:48;;;;;;;3.60;1.23;;;6.80;99.90;;;;;;5019868;27;89544;-31
2023/12/20 11:51:14;;;;;;;5.50;1.80;;;6.70;99.90;;;;;;5019514;27;89702;-32
2023/12/20 11:53:40;;;;;;;8.77;2.20;;;6.70;99.90;;;;;;5019980;28;89973;-28
2023/12/20 11:56:06;;;;;;;2.33;1.33;;;6.80;99.90;;;;;;5019906;27;89632;-29
2023/12/20 11:58:33;;;;;;;9.65;3.00;;;6.70;99.90;;;;;;5019957;27;90534;-31
2023/12/20 12:00:59;;;;;;;3.60;1.55;;;6.80;99.90;;;;;;5019797;27;89269;-29
2023/12/20 12:03:25;;;;;;;7.50;2.97;;;6.80;99.90;;;;;;5019765;27;89521;-29
2023/12/20 12:05:51;;;;;;;4.13;1.40;;;6.80;99.90;;;;;;5020033;27;90209;-30
2023/12/20 12:08:17;;;;;;;3.85;1.63;;;6.80;99.90;;;;;;5019047;28;90870;-29
2023/12/20 12:10:46;;;;;;;3.10;1.67;;;6.80;99.90;;;;;;5019462;27;90734;-32
2023/12/20 12:13:11;;;;;;;10.07;2.65;;;6.80;99.90;;;;;;5018903;27;90398;-28
2023/12/20 12:15:37;;;;;;;4.85;3.00;;;6.80;99.90;;;;;;5020193;27;90157;-30
2023/12/20 12:18:03;;;;;;;9.00;2.20;;;6.80;99.90;;;;;;5018592;27;90197;-32
2023/12/20 12:20:29;;;;;;;11.48;2.67;;;6.80;99.90;;;;;;5018308;28;89797;-30
2023/12/20 12:23:06;;;;;;;4.55;1.92;;;6.80;99.90;;;;;;5018805;27;89041;-31
2023/12/20 12:25:33;;;;;;;6.07;2.40;;;6.90;99.90;;;;;;5020464;27;88179;-27
2023/12/20 12:27:59;;;;;;;8.02;2.47;;;6.90;99.90;;;;;;5012354;27;90217;-29
2023/12/20 12:30:25;;;;;;;7.68;2.15;;;6.90;99.90;;;;;;5019081;27;90468;-30
2023/12/20 12:32:52;;;;;;;12.45;2.70;;;6.90;99.90;;;;;;5017899;27;89704;-28
2023/12/20 12:35:19;;;;;;;8.82;3.95;;;6.90;99.90;;;;;;5019158;28;89309;-32
2023/12/20 12:37:45;;;;;;;9.43;1.85;;;6.90;99.90;;;;;;5018177;27;91831;-31
2023/12/20 12:40:14;;;;;;;6.97;2.58;;;7.00;99.90;;;;;;5018225;28;90232;-28
2023/12/20 12:42:42;;;;;;;8.77;2.22;;;7.00;99.90;;;;;;5018903;28;89775;-30
2023/12/20 12:45:08;;;;;;;4.73;3.07;;;7.00;99.90;;;;;;5019358;27;89868;-30
2023/12/20 12:47:34;;;;;;;5.93;1.75;;;7.00;99.90;;;;;;5019694;27;90115;-28